sensor_id;sensor_type;location;lat;lon;timestamp;P1;durP1;ratioP1;P2;durP2;ratioP2
43160;SDS011;40968;52.342;5.528;2022-08-21T00:02:12;16.85;;;6.95;;
43160;SDS011;40968;52.342;5.528;2022-08-21T00:04:42;15.57;;;6.43;;
43160;SDS011;40968;52.342;5.528;2022-08-21T00:07:09;19.15;;;6.65;;
43160;SDS011;40968;52.342;5.528;2022-08-21T00:09:35;17.48;;;5.65;;
43160;SDS011;40968;52.342;5.528;2022-08-21T00:12:03;13.05;;;5.30;;
43160;SDS011;40968;52.342;5.528;2022-08-21T00:14:30;16.42;;;6.35;;
43160;SDS011;40968;52.342;5.528;2022-08-21T00:16:56;13.45;;;5.55;;
43160;SDS011;40968;52.342;5.528;2022-08-21T00:19:23;10.32;;;5.22;;
43160;SDS011;40968;52.342;5.528;2022-08-21T00:21:52;14.07;;;6.03;;
43160;SDS011;40968;52.342;5.528;2022-08-21T00:24:19;13.63;;;4.90;;
43160;SDS011;40968;52.342;5.528;2022-08-21T00:26:47;11.48;;;4.32;;
43160;SDS011;40968;52.342;5.528;2022-08-21T00:29:14;11.40;;;5.35;;
43160;SDS011;40968;52.342;5.528;2022-08-21T00:31:41;16.15;;;5.80;;
43160;SDS011;40968;52.342;5.528;2022-08-21T00:34:08;17.75;;;5.15;;
43160;SDS011;40968;52.342;5.528;2022-08-21T00:36:36;13.77;;;5.40;;
43160;SDS011;40968;52.342;5.528;2022-08-21T00:39:04;10.93;;;4.60;;
43160;SDS011;40968;52.342;5.528;2022-08-21T00:41:33;15.23;;;5.97;;
43160;SDS011;40968;52.342;5.528;2022-08-21T00:44:01;17.30;;;6.20;;
43160;SDS011;40968;52.342;5.528;2022-08-21T00:46:28;16.27;;;5.57;;
43160;SDS011;40968;52.342;5.528;2022-08-21T00:48:55;14.88;;;4.55;;
43160;SDS011;40968;52.342;5.528;2022-08-21T00:51:23;11.77;;;5.93;;
43160;SDS011;40968;52.342;5.528;2022-08-21T00:53:55;12.90;;;5.00;;
43160;SDS011;40968;52.342;5.528;2022-08-21T00:56:27;10.10;;;4.50;;
43160;SDS011;40968;52.342;5.528;2022-08-21T00:58:54;18.23;;;5.47;;
43160;SDS011;40968;52.342;5.528;2022-08-21T01:01:23;13.35;;;5.15;;
43160;SDS011;40968;52.342;5.528;2022-08-21T01:03:50;14.35;;;5.07;;
43160;SDS011;40968;52.342;5.528;2022-08-21T01:06:17;17.38;;;5.18;;
43160;SDS011;40968;52.342;5.528;2022-08-21T01:08:44;12.63;;;4.38;;
43160;SDS011;40968;52.342;5.528;2022-08-21T01:11:12;15.35;;;4.82;;
43160;SDS011;40968;52.342;5.528;2022-08-21T01:13:40;17.63;;;6.18;;
43160;SDS011;40968;52.342;5.528;2022-08-21T01:16:11;12.05;;;4.60;;
43160;SDS011;40968;52.342;5.528;2022-08-21T01:18:39;11.43;;;4.88;;
43160;SDS011;40968;52.342;5.528;2022-08-21T01:21:09;12.10;;;5.15;;
43160;SDS011;40968;52.342;5.528;2022-08-21T01:23:39;12.13;;;5.03;;
43160;SDS011;40968;52.342;5.528;2022-08-21T01:26:07;13.60;;;5.10;;
43160;SDS011;40968;52.342;5.528;2022-08-21T01:28:36;13.23;;;5.38;;
43160;SDS011;40968;52.342;5.528;2022-08-21T01:31:05;12.18;;;5.28;;
43160;SDS011;40968;52.342;5.528;2022-08-21T01:33:33;15.48;;;4.90;;
43160;SDS011;40968;52.342;5.528;2022-08-21T01:36:00;13.63;;;4.88;;
43160;SDS011;40968;52.342;5.528;2022-08-21T01:38:28;15.23;;;4.57;;
43160;SDS011;40968;52.342;5.528;2022-08-21T01:40:55;11.50;;;4.20;;
43160;SDS011;40968;52.342;5.528;2022-08-21T01:43:22;11.65;;;4.53;;
43160;SDS011;40968;52.342;5.528;2022-08-21T01:45:48;14.00;;;4.65;;
43160;SDS011;40968;52.342;5.528;2022-08-21T01:48:15;11.32;;;4.63;;
43160;SDS011;40968;52.342;5.528;2022-08-21T01:50:41;12.18;;;4.72;;
43160;SDS011;40968;52.342;5.528;2022-08-21T01:53:08;12.82;;;4.40;;
43160;SDS011;40968;52.342;5.528;2022-08-21T01:55:36;13.25;;;4.28;;
43160;SDS011;40968;52.342;5.528;2022-08-21T01:58:02;15.73;;;5.40;;
43160;SDS011;40968;52.342;5.528;2022-08-21T02:00:29;16.27;;;4.90;;
43160;SDS011;40968;52.342;5.528;2022-08-21T02:02:55;16.38;;;5.55;;
43160;SDS011;40968;52.342;5.528;2022-08-21T02:05:22;18.58;;;4.97;;
43160;SDS011;40968;52.342;5.528;2022-08-21T02:07:49;13.40;;;5.00;;
43160;SDS011;40968;52.342;5.528;2022-08-21T02:10:19;12.70;;;5.15;;
43160;SDS011;40968;52.342;5.528;2022-08-21T02:12:48;19.83;;;5.22;;
43160;SDS011;40968;52.342;5.528;2022-08-21T02:15:15;18.55;;;5.15;;
43160;SDS011;40968;52.342;5.528;2022-08-21T02:17:43;10.95;;;5.03;;
43160;SDS011;40968;52.342;5.528;2022-08-21T02:20:11;17.25;;;6.07;;
43160;SDS011;40968;52.342;5.528;2022-08-21T02:22:42;17.25;;;5.47;;
43160;SDS011;40968;52.342;5.528;2022-08-21T02:25:09;17.35;;;5.38;;
43160;SDS011;40968;52.342;5.528;2022-08-21T02:27:37;11.75;;;4.85;;
43160;SDS011;40968;52.342;5.528;2022-08-21T02:32:35;11.95;;;4.80;;
43160;SDS011;40968;52.342;5.528;2022-08-21T02:35:02;13.50;;;5.28;;
43160;SDS011;40968;52.342;5.528;2022-08-21T02:37:29;12.95;;;4.55;;
43160;SDS011;40968;52.342;5.528;2022-08-21T02:39:56;13.45;;;5.63;;
43160;SDS011;40968;52.342;5.528;2022-08-21T02:42:22;11.32;;;5.53;;
43160;SDS011;40968;52.342;5.528;2022-08-21T02:44:49;14.00;;;5.22;;
43160;SDS011;40968;52.342;5.528;2022-08-21T02:47:17;11.40;;;5.15;;
43160;SDS011;40968;52.342;5.528;2022-08-21T02:49:43;16.90;;;5.22;;
43160;SDS011;40968;52.342;5.528;2022-08-21T02:52:10;13.52;;;5.20;;
43160;SDS011;40968;52.342;5.528;2022-08-21T02:54:36;15.10;;;5.50;;
43160;SDS011;40968;52.342;5.528;2022-08-21T02:57:03;14.50;;;4.55;;
43160;SDS011;40968;52.342;5.528;2022-08-21T02:59:30;9.77;;;4.82;;
43160;SDS011;40968;52.342;5.528;2022-08-21T03:01:57;10.73;;;4.80;;
43160;SDS011;40968;52.342;5.528;2022-08-21T03:04:25;19.85;;;5.80;;
43160;SDS011;40968;52.342;5.528;2022-08-21T03:06:51;12.20;;;5.07;;
43160;SDS011;40968;52.342;5.528;2022-08-21T03:09:18;18.23;;;5.38;;
43160;SDS011;40968;52.342;5.528;2022-08-21T03:11:45;22.10;;;6.40;;
43160;SDS011;40968;52.342;5.528;2022-08-21T03:14:11;17.00;;;5.35;;
43160;SDS011;40968;52.342;5.528;2022-08-21T03:16:38;16.38;;;6.40;;
43160;SDS011;40968;52.342;5.528;2022-08-21T03:19:04;15.55;;;5.18;;
43160;SDS011;40968;52.342;5.528;2022-08-21T03:21:32;18.02;;;5.63;;
43160;SDS011;40968;52.342;5.528;2022-08-21T03:23:59;13.23;;;6.13;;
43160;SDS011;40968;52.342;5.528;2022-08-21T03:26:25;16.00;;;6.07;;
43160;SDS011;40968;52.342;5.528;2022-08-21T03:28:52;22.42;;;5.38;;
43160;SDS011;40968;52.342;5.528;2022-08-21T03:31:18;17.00;;;5.55;;
43160;SDS011;40968;52.342;5.528;2022-08-21T03:33:46;14.82;;;5.78;;
43160;SDS011;40968;52.342;5.528;2022-08-21T03:36:13;12.07;;;5.18;;
43160;SDS011;40968;52.342;5.528;2022-08-21T03:38:41;17.52;;;6.20;;
43160;SDS011;40968;52.342;5.528;2022-08-21T03:41:07;22.67;;;5.88;;
43160;SDS011;40968;52.342;5.528;2022-08-21T03:43:34;23.10;;;5.95;;
43160;SDS011;40968;52.342;5.528;2022-08-21T03:46:01;14.63;;;5.60;;
43160;SDS011;40968;52.342;5.528;2022-08-21T03:48:29;16.17;;;5.25;;
43160;SDS011;40968;52.342;5.528;2022-08-21T03:50:56;18.67;;;6.18;;
43160;SDS011;40968;52.342;5.528;2022-08-21T03:53:23;14.57;;;5.88;;
43160;SDS011;40968;52.342;5.528;2022-08-21T03:55:51;14.40;;;5.55;;
43160;SDS011;40968;52.342;5.528;2022-08-21T03:58:20;16.00;;;5.93;;
43160;SDS011;40968;52.342;5.528;2022-08-21T04:00:49;16.92;;;5.78;;
43160;SDS011;40968;52.342;5.528;2022-08-21T04:03:19;13.20;;;5.38;;
43160;SDS011;40968;52.342;5.528;2022-08-21T04:05:46;15.25;;;5.53;;
43160;SDS011;40968;52.342;5.528;2022-08-21T04:08:13;15.25;;;5.28;;
43160;SDS011;40968;52.342;5.528;2022-08-21T04:10:42;15.57;;;5.85;;
43160;SDS011;40968;52.342;5.528;2022-08-21T04:13:12;20.52;;;6.43;;
43160;SDS011;40968;52.342;5.528;2022-08-21T04:15:40;13.77;;;5.28;;
43160;SDS011;40968;52.342;5.528;2022-08-21T04:18:07;22.15;;;6.00;;
43160;SDS011;40968;52.342;5.528;2022-08-21T04:20:34;14.95;;;5.82;;
43160;SDS011;40968;52.342;5.528;2022-08-21T04:23:01;18.02;;;5.53;;
43160;SDS011;40968;52.342;5.528;2022-08-21T04:25:28;20.80;;;6.88;;
43160;SDS011;40968;52.342;5.528;2022-08-21T04:27:55;16.23;;;6.20;;
43160;SDS011;40968;52.342;5.528;2022-08-21T04:30:23;13.02;;;5.45;;
43160;SDS011;40968;52.342;5.528;2022-08-21T04:32:50;12.95;;;6.22;;
43160;SDS011;40968;52.342;5.528;2022-08-21T04:35:18;14.75;;;5.57;;
43160;SDS011;40968;52.342;5.528;2022-08-21T04:37:47;20.02;;;6.63;;
43160;SDS011;40968;52.342;5.528;2022-08-21T04:40:14;16.85;;;6.22;;
43160;SDS011;40968;52.342;5.528;2022-08-21T04:42:44;15.95;;;6.35;;
43160;SDS011;40968;52.342;5.528;2022-08-21T04:45:15;19.75;;;6.90;;
43160;SDS011;40968;52.342;5.528;2022-08-21T04:47:46;18.55;;;6.40;;
43160;SDS011;40968;52.342;5.528;2022-08-21T04:50:14;22.33;;;6.40;;
43160;SDS011;40968;52.342;5.528;2022-08-21T04:52:40;17.15;;;6.95;;
43160;SDS011;40968;52.342;5.528;2022-08-21T04:55:07;16.60;;;5.72;;
43160;SDS011;40968;52.342;5.528;2022-08-21T04:57:34;15.35;;;6.43;;
43160;SDS011;40968;52.342;5.528;2022-08-21T05:00:02;22.13;;;7.57;;
43160;SDS011;40968;52.342;5.528;2022-08-21T05:02:30;22.38;;;7.30;;
43160;SDS011;40968;52.342;5.528;2022-08-21T05:04:59;20.88;;;7.35;;
43160;SDS011;40968;52.342;5.528;2022-08-21T05:07:27;20.70;;;7.43;;
43160;SDS011;40968;52.342;5.528;2022-08-21T05:09:55;21.13;;;7.38;;
43160;SDS011;40968;52.342;5.528;2022-08-21T05:12:22;15.63;;;6.10;;
43160;SDS011;40968;52.342;5.528;2022-08-21T05:14:49;23.60;;;6.82;;
43160;SDS011;40968;52.342;5.528;2022-08-21T05:17:15;14.85;;;5.93;;
43160;SDS011;40968;52.342;5.528;2022-08-21T05:19:42;19.38;;;6.93;;
43160;SDS011;40968;52.342;5.528;2022-08-21T05:22:10;17.98;;;7.28;;
43160;SDS011;40968;52.342;5.528;2022-08-21T05:24:37;18.67;;;6.88;;
43160;SDS011;40968;52.342;5.528;2022-08-21T05:27:03;25.63;;;8.43;;
43160;SDS011;40968;52.342;5.528;2022-08-21T05:29:31;18.23;;;6.78;;
43160;SDS011;40968;52.342;5.528;2022-08-21T05:31:58;24.27;;;6.82;;
43160;SDS011;40968;52.342;5.528;2022-08-21T05:34:25;21.17;;;7.90;;
43160;SDS011;40968;52.342;5.528;2022-08-21T05:36:51;20.13;;;7.70;;
43160;SDS011;40968;52.342;5.528;2022-08-21T05:39:19;25.40;;;7.47;;
43160;SDS011;40968;52.342;5.528;2022-08-21T05:41:46;22.45;;;7.18;;
43160;SDS011;40968;52.342;5.528;2022-08-21T05:44:12;18.77;;;7.15;;
43160;SDS011;40968;52.342;5.528;2022-08-21T05:46:40;16.38;;;6.40;;
43160;SDS011;40968;52.342;5.528;2022-08-21T05:49:06;17.60;;;6.93;;
43160;SDS011;40968;52.342;5.528;2022-08-21T05:51:33;27.10;;;8.18;;
43160;SDS011;40968;52.342;5.528;2022-08-21T05:54:00;20.33;;;6.78;;
43160;SDS011;40968;52.342;5.528;2022-08-21T05:56:28;21.48;;;7.72;;
43160;SDS011;40968;52.342;5.528;2022-08-21T05:58:54;16.80;;;5.97;;
43160;SDS011;40968;52.342;5.528;2022-08-21T06:01:21;18.02;;;6.55;;
43160;SDS011;40968;52.342;5.528;2022-08-21T06:03:48;19.83;;;6.82;;
43160;SDS011;40968;52.342;5.528;2022-08-21T06:06:14;21.63;;;7.95;;
43160;SDS011;40968;52.342;5.528;2022-08-21T06:08:41;20.10;;;6.90;;
43160;SDS011;40968;52.342;5.528;2022-08-21T06:11:08;18.40;;;6.70;;
43160;SDS011;40968;52.342;5.528;2022-08-21T06:13:37;30.70;;;7.22;;
43160;SDS011;40968;52.342;5.528;2022-08-21T06:16:04;19.38;;;7.00;;
43160;SDS011;40968;52.342;5.528;2022-08-21T06:18:33;20.00;;;7.45;;
43160;SDS011;40968;52.342;5.528;2022-08-21T06:20:59;27.23;;;7.35;;
43160;SDS011;40968;52.342;5.528;2022-08-21T06:23:26;21.65;;;6.95;;
43160;SDS011;40968;52.342;5.528;2022-08-21T06:25:53;23.20;;;6.97;;
43160;SDS011;40968;52.342;5.528;2022-08-21T06:28:19;18.45;;;6.20;;
43160;SDS011;40968;52.342;5.528;2022-08-21T06:30:47;31.92;;;6.93;;
43160;SDS011;40968;52.342;5.528;2022-08-21T06:33:14;17.75;;;6.20;;
43160;SDS011;40968;52.342;5.528;2022-08-21T06:35:40;18.98;;;6.88;;
43160;SDS011;40968;52.342;5.528;2022-08-21T06:38:07;18.02;;;5.93;;
43160;SDS011;40968;52.342;5.528;2022-08-21T06:40:35;21.60;;;6.45;;
43160;SDS011;40968;52.342;5.528;2022-08-21T06:43:05;21.38;;;6.55;;
43160;SDS011;40968;52.342;5.528;2022-08-21T06:45:33;22.90;;;6.78;;
43160;SDS011;40968;52.342;5.528;2022-08-21T06:48:01;30.58;;;7.53;;
43160;SDS011;40968;52.342;5.528;2022-08-21T06:50:28;26.38;;;7.13;;
43160;SDS011;40968;52.342;5.528;2022-08-21T06:52:59;19.35;;;6.47;;
43160;SDS011;40968;52.342;5.528;2022-08-21T06:55:26;20.92;;;6.75;;
43160;SDS011;40968;52.342;5.528;2022-08-21T06:57:53;23.02;;;6.57;;
43160;SDS011;40968;52.342;5.528;2022-08-21T07:00:20;16.90;;;6.43;;
43160;SDS011;40968;52.342;5.528;2022-08-21T07:02:46;16.95;;;6.40;;
43160;SDS011;40968;52.342;5.528;2022-08-21T07:05:14;20.42;;;6.50;;
43160;SDS011;40968;52.342;5.528;2022-08-21T07:07:41;19.10;;;6.40;;
43160;SDS011;40968;52.342;5.528;2022-08-21T07:10:08;21.08;;;7.30;;
43160;SDS011;40968;52.342;5.528;2022-08-21T07:12:35;26.20;;;7.13;;
43160;SDS011;40968;52.342;5.528;2022-08-21T07:15:01;19.85;;;6.35;;
43160;SDS011;40968;52.342;5.528;2022-08-21T07:17:28;23.25;;;7.15;;
43160;SDS011;40968;52.342;5.528;2022-08-21T07:19:55;19.23;;;7.45;;
43160;SDS011;40968;52.342;5.528;2022-08-21T07:22:24;19.73;;;6.30;;
43160;SDS011;40968;52.342;5.528;2022-08-21T07:24:52;23.60;;;6.30;;
43160;SDS011;40968;52.342;5.528;2022-08-21T07:27:19;21.08;;;6.57;;
43160;SDS011;40968;52.342;5.528;2022-08-21T07:29:45;25.88;;;6.70;;
43160;SDS011;40968;52.342;5.528;2022-08-21T07:32:13;21.33;;;6.97;;
43160;SDS011;40968;52.342;5.528;2022-08-21T07:34:40;22.80;;;6.07;;
43160;SDS011;40968;52.342;5.528;2022-08-21T07:37:07;19.90;;;6.00;;
43160;SDS011;40968;52.342;5.528;2022-08-21T07:39:35;25.95;;;6.72;;
43160;SDS011;40968;52.342;5.528;2022-08-21T07:42:01;21.63;;;5.78;;
43160;SDS011;40968;52.342;5.528;2022-08-21T07:44:28;31.45;;;6.05;;
43160;SDS011;40968;52.342;5.528;2022-08-21T07:46:55;22.98;;;5.63;;
43160;SDS011;40968;52.342;5.528;2022-08-21T07:49:21;20.90;;;5.63;;
43160;SDS011;40968;52.342;5.528;2022-08-21T07:51:48;16.50;;;5.95;;
43160;SDS011;40968;52.342;5.528;2022-08-21T07:54:15;23.63;;;5.97;;
43160;SDS011;40968;52.342;5.528;2022-08-21T07:56:42;22.75;;;5.43;;
43160;SDS011;40968;52.342;5.528;2022-08-21T07:59:09;19.98;;;5.15;;
43160;SDS011;40968;52.342;5.528;2022-08-21T08:01:36;22.98;;;5.50;;
43160;SDS011;40968;52.342;5.528;2022-08-21T08:04:02;21.67;;;5.60;;
43160;SDS011;40968;52.342;5.528;2022-08-21T08:06:29;26.52;;;6.28;;
43160;SDS011;40968;52.342;5.528;2022-08-21T08:08:56;20.50;;;5.63;;
43160;SDS011;40968;52.342;5.528;2022-08-21T08:11:22;18.77;;;6.13;;
43160;SDS011;40968;52.342;5.528;2022-08-21T08:13:51;19.52;;;5.22;;
43160;SDS011;40968;52.342;5.528;2022-08-21T08:16:18;23.20;;;6.18;;
43160;SDS011;40968;52.342;5.528;2022-08-21T08:18:45;16.65;;;5.50;;
43160;SDS011;40968;52.342;5.528;2022-08-21T08:21:12;18.42;;;5.50;;
43160;SDS011;40968;52.342;5.528;2022-08-21T08:23:39;18.90;;;5.47;;
43160;SDS011;40968;52.342;5.528;2022-08-21T08:26:05;21.13;;;5.57;;
43160;SDS011;40968;52.342;5.528;2022-08-21T08:28:32;23.08;;;6.22;;
43160;SDS011;40968;52.342;5.528;2022-08-21T08:31:00;17.42;;;5.28;;
43160;SDS011;40968;52.342;5.528;2022-08-21T08:33:27;15.10;;;4.78;;
43160;SDS011;40968;52.342;5.528;2022-08-21T08:35:54;27.42;;;5.35;;
43160;SDS011;40968;52.342;5.528;2022-08-21T08:38:22;19.20;;;4.88;;
43160;SDS011;40968;52.342;5.528;2022-08-21T08:40:51;20.92;;;4.40;;
43160;SDS011;40968;52.342;5.528;2022-08-21T08:43:25;18.20;;;4.28;;
43160;SDS011;40968;52.342;5.528;2022-08-21T08:45:53;14.77;;;4.65;;
43160;SDS011;40968;52.342;5.528;2022-08-21T08:48:34;13.40;;;4.38;;
43160;SDS011;40968;52.342;5.528;2022-08-21T08:51:11;25.30;;;4.88;;
43160;SDS011;40968;52.342;5.528;2022-08-21T08:53:46;13.80;;;4.70;;
43160;SDS011;40968;52.342;5.528;2022-08-21T08:56:18;22.30;;;4.43;;
43160;SDS011;40968;52.342;5.528;2022-08-21T08:58:48;18.08;;;5.03;;
43160;SDS011;40968;52.342;5.528;2022-08-21T09:01:18;18.80;;;4.47;;
43160;SDS011;40968;52.342;5.528;2022-08-21T09:03:47;16.23;;;4.78;;
43160;SDS011;40968;52.342;5.528;2022-08-21T09:08:50;15.30;;;4.40;;
43160;SDS011;40968;52.342;5.528;2022-08-21T09:11:26;26.90;;;4.18;;
43160;SDS011;40968;52.342;5.528;2022-08-21T09:13:57;19.73;;;4.03;;
43160;SDS011;40968;52.342;5.528;2022-08-21T09:16:35;20.00;;;4.00;;
43160;SDS011;40968;52.342;5.528;2022-08-21T09:19:17;10.13;;;4.30;;
43160;SDS011;40968;52.342;5.528;2022-08-21T09:22:03;11.15;;;3.42;;
43160;SDS011;40968;52.342;5.528;2022-08-21T09:24:37;16.63;;;4.05;;
43160;SDS011;40968;52.342;5.528;2022-08-21T09:27:12;20.77;;;3.85;;
43160;SDS011;40968;52.342;5.528;2022-08-21T09:29:42;19.92;;;4.60;;
43160;SDS011;40968;52.342;5.528;2022-08-21T09:32:13;16.02;;;4.18;;
43160;SDS011;40968;52.342;5.528;2022-08-21T09:34:53;16.90;;;3.90;;
43160;SDS011;40968;52.342;5.528;2022-08-21T09:37:22;13.05;;;3.58;;
43160;SDS011;40968;52.342;5.528;2022-08-21T09:39:49;12.30;;;3.28;;
43160;SDS011;40968;52.342;5.528;2022-08-21T09:42:20;18.20;;;3.10;;
43160;SDS011;40968;52.342;5.528;2022-08-21T09:44:49;13.57;;;3.40;;
43160;SDS011;40968;52.342;5.528;2022-08-21T09:47:38;14.15;;;3.88;;
43160;SDS011;40968;52.342;5.528;2022-08-21T09:50:12;12.52;;;3.72;;
43160;SDS011;40968;52.342;5.528;2022-08-21T09:52:44;15.68;;;3.55;;
43160;SDS011;40968;52.342;5.528;2022-08-21T09:55:15;16.42;;;3.30;;
43160;SDS011;40968;52.342;5.528;2022-08-21T09:57:59;13.63;;;3.22;;
43160;SDS011;40968;52.342;5.528;2022-08-21T10:00:27;14.95;;;4.00;;
43160;SDS011;40968;52.342;5.528;2022-08-21T10:03:07;19.10;;;3.83;;
43160;SDS011;40968;52.342;5.528;2022-08-21T10:05:36;17.23;;;3.75;;
43160;SDS011;40968;52.342;5.528;2022-08-21T10:08:04;13.05;;;3.50;;
43160;SDS011;40968;52.342;5.528;2022-08-21T10:10:31;11.10;;;3.60;;
43160;SDS011;40968;52.342;5.528;2022-08-21T10:13:04;12.73;;;3.78;;
43160;SDS011;40968;52.342;5.528;2022-08-21T10:15:39;14.30;;;4.50;;
43160;SDS011;40968;52.342;5.528;2022-08-21T10:18:16;13.52;;;4.43;;
43160;SDS011;40968;52.342;5.528;2022-08-21T10:20:54;20.58;;;4.22;;
43160;SDS011;40968;52.342;5.528;2022-08-21T10:23:37;14.10;;;3.60;;
43160;SDS011;40968;52.342;5.528;2022-08-21T10:26:14;16.30;;;3.65;;
43160;SDS011;40968;52.342;5.528;2022-08-21T10:28:51;12.30;;;3.58;;
43160;SDS011;40968;52.342;5.528;2022-08-21T10:31:27;11.57;;;2.90;;
43160;SDS011;40968;52.342;5.528;2022-08-21T10:34:07;14.90;;;3.53;;
43160;SDS011;40968;52.342;5.528;2022-08-21T10:36:50;20.58;;;4.50;;
43160;SDS011;40968;52.342;5.528;2022-08-21T10:39:33;14.95;;;3.60;;
43160;SDS011;40968;52.342;5.528;2022-08-21T10:42:06;10.98;;;3.30;;
43160;SDS011;40968;52.342;5.528;2022-08-21T10:44:47;19.55;;;3.78;;
43160;SDS011;40968;52.342;5.528;2022-08-21T10:47:28;13.55;;;3.63;;
43160;SDS011;40968;52.342;5.528;2022-08-21T10:50:02;14.68;;;3.38;;
43160;SDS011;40968;52.342;5.528;2022-08-21T10:52:43;15.45;;;3.85;;
43160;SDS011;40968;52.342;5.528;2022-08-21T10:55:18;13.32;;;4.03;;
43160;SDS011;40968;52.342;5.528;2022-08-21T10:57:47;15.35;;;3.35;;
43160;SDS011;40968;52.342;5.528;2022-08-21T11:00:21;14.25;;;3.60;;
43160;SDS011;40968;52.342;5.528;2022-08-21T11:02:50;12.75;;;3.30;;
43160;SDS011;40968;52.342;5.528;2022-08-21T11:05:24;13.40;;;3.42;;
43160;SDS011;40968;52.342;5.528;2022-08-21T11:07:57;18.30;;;3.17;;
43160;SDS011;40968;52.342;5.528;2022-08-21T11:10:31;14.48;;;3.60;;
43160;SDS011;40968;52.342;5.528;2022-08-21T11:13:04;8.93;;;3.33;;
43160;SDS011;40968;52.342;5.528;2022-08-21T11:15:38;11.02;;;3.28;;
43160;SDS011;40968;52.342;5.528;2022-08-21T11:18:16;10.02;;;3.28;;
43160;SDS011;40968;52.342;5.528;2022-08-21T11:20:49;9.18;;;3.15;;
43160;SDS011;40968;52.342;5.528;2022-08-21T11:23:25;12.40;;;3.50;;
43160;SDS011;40968;52.342;5.528;2022-08-21T11:25:58;13.30;;;3.60;;
43160;SDS011;40968;52.342;5.528;2022-08-21T11:28:33;16.15;;;3.92;;
43160;SDS011;40968;52.342;5.528;2022-08-21T11:31:06;15.02;;;3.53;;
43160;SDS011;40968;52.342;5.528;2022-08-21T11:33:49;13.00;;;3.78;;
43160;SDS011;40968;52.342;5.528;2022-08-21T11:36:29;15.05;;;3.55;;
43160;SDS011;40968;52.342;5.528;2022-08-21T11:39:09;15.95;;;4.13;;
43160;SDS011;40968;52.342;5.528;2022-08-21T11:41:43;13.75;;;3.90;;
43160;SDS011;40968;52.342;5.528;2022-08-21T11:44:18;8.75;;;3.40;;
43160;SDS011;40968;52.342;5.528;2022-08-21T11:46:58;15.95;;;3.90;;
43160;SDS011;40968;52.342;5.528;2022-08-21T11:49:39;12.80;;;3.88;;
43160;SDS011;40968;52.342;5.528;2022-08-21T11:52:16;8.85;;;3.17;;
43160;SDS011;40968;52.342;5.528;2022-08-21T11:54:51;20.35;;;4.80;;
43160;SDS011;40968;52.342;5.528;2022-08-21T11:57:24;17.33;;;4.00;;
43160;SDS011;40968;52.342;5.528;2022-08-21T11:59:57;15.45;;;3.50;;
43160;SDS011;40968;52.342;5.528;2022-08-21T12:02:28;14.27;;;3.78;;
43160;SDS011;40968;52.342;5.528;2022-08-21T12:07:34;12.25;;;4.43;;
43160;SDS011;40968;52.342;5.528;2022-08-21T12:10:05;16.13;;;4.95;;
43160;SDS011;40968;52.342;5.528;2022-08-21T12:12:34;14.73;;;4.50;;
43160;SDS011;40968;52.342;5.528;2022-08-21T12:17:52;11.73;;;4.15;;
43160;SDS011;40968;52.342;5.528;2022-08-21T12:20:27;12.85;;;4.82;;
43160;SDS011;40968;52.342;5.528;2022-08-21T12:23:05;11.48;;;4.45;;
43160;SDS011;40968;52.342;5.528;2022-08-21T12:25:44;13.82;;;4.43;;
43160;SDS011;40968;52.342;5.528;2022-08-21T12:28:14;12.93;;;4.45;;
43160;SDS011;40968;52.342;5.528;2022-08-21T12:30:47;13.40;;;4.68;;
43160;SDS011;40968;52.342;5.528;2022-08-21T12:33:22;8.80;;;4.53;;
43160;SDS011;40968;52.342;5.528;2022-08-21T12:35:51;7.50;;;4.70;;
43160;SDS011;40968;52.342;5.528;2022-08-21T12:38:27;10.38;;;4.07;;
43160;SDS011;40968;52.342;5.528;2022-08-21T12:40:57;10.98;;;3.78;;
43160;SDS011;40968;52.342;5.528;2022-08-21T12:43:28;12.48;;;3.70;;
43160;SDS011;40968;52.342;5.528;2022-08-21T12:45:57;14.18;;;3.45;;
43160;SDS011;40968;52.342;5.528;2022-08-21T12:48:27;10.30;;;3.72;;
43160;SDS011;40968;52.342;5.528;2022-08-21T12:50:58;8.43;;;3.33;;
43160;SDS011;40968;52.342;5.528;2022-08-21T12:53:35;8.75;;;2.78;;
43160;SDS011;40968;52.342;5.528;2022-08-21T12:56:10;7.93;;;2.53;;
43160;SDS011;40968;52.342;5.528;2022-08-21T12:58:39;10.85;;;3.33;;
43160;SDS011;40968;52.342;5.528;2022-08-21T13:01:13;9.77;;;3.05;;
43160;SDS011;40968;52.342;5.528;2022-08-21T13:03:45;13.10;;;2.83;;
43160;SDS011;40968;52.342;5.528;2022-08-21T13:06:13;8.00;;;2.50;;
43160;SDS011;40968;52.342;5.528;2022-08-21T13:08:43;7.83;;;3.13;;
43160;SDS011;40968;52.342;5.528;2022-08-21T13:11:14;6.38;;;2.80;;
43160;SDS011;40968;52.342;5.528;2022-08-21T13:13:47;8.10;;;2.13;;
43160;SDS011;40968;52.342;5.528;2022-08-21T13:16:17;13.90;;;2.90;;
43160;SDS011;40968;52.342;5.528;2022-08-21T13:18:52;9.23;;;2.35;;
43160;SDS011;40968;52.342;5.528;2022-08-21T13:21:21;11.73;;;2.65;;
43160;SDS011;40968;52.342;5.528;2022-08-21T13:23:54;7.97;;;2.50;;
43160;SDS011;40968;52.342;5.528;2022-08-21T13:26:22;7.03;;;2.50;;
43160;SDS011;40968;52.342;5.528;2022-08-21T13:28:49;11.02;;;2.70;;
43160;SDS011;40968;52.342;5.528;2022-08-21T13:31:17;13.38;;;2.42;;
43160;SDS011;40968;52.342;5.528;2022-08-21T13:33:46;13.82;;;2.60;;
43160;SDS011;40968;52.342;5.528;2022-08-21T13:36:15;12.25;;;2.60;;
43160;SDS011;40968;52.342;5.528;2022-08-21T13:38:45;14.55;;;2.63;;
43160;SDS011;40968;52.342;5.528;2022-08-21T13:41:15;13.35;;;2.20;;
43160;SDS011;40968;52.342;5.528;2022-08-21T13:43:49;11.13;;;3.17;;
43160;SDS011;40968;52.342;5.528;2022-08-21T13:46:23;11.55;;;2.50;;
43160;SDS011;40968;52.342;5.528;2022-08-21T13:48:52;10.05;;;2.60;;
43160;SDS011;40968;52.342;5.528;2022-08-21T13:51:20;12.32;;;2.15;;
43160;SDS011;40968;52.342;5.528;2022-08-21T13:53:48;9.38;;;2.28;;
43160;SDS011;40968;52.342;5.528;2022-08-21T13:56:24;8.00;;;2.20;;
43160;SDS011;40968;52.342;5.528;2022-08-21T13:58:54;12.90;;;2.60;;
43160;SDS011;40968;52.342;5.528;2022-08-21T14:01:23;10.60;;;2.58;;
43160;SDS011;40968;52.342;5.528;2022-08-21T14:03:53;7.88;;;2.33;;
43160;SDS011;40968;52.342;5.528;2022-08-21T14:06:24;10.13;;;2.70;;
43160;SDS011;40968;52.342;5.528;2022-08-21T14:08:53;10.70;;;2.35;;
43160;SDS011;40968;52.342;5.528;2022-08-21T14:11:23;7.30;;;2.13;;
43160;SDS011;40968;52.342;5.528;2022-08-21T14:13:55;13.00;;;2.65;;
43160;SDS011;40968;52.342;5.528;2022-08-21T14:19:09;10.15;;;2.50;;
43160;SDS011;40968;52.342;5.528;2022-08-21T14:21:43;9.45;;;2.33;;
43160;SDS011;40968;52.342;5.528;2022-08-21T14:24:11;8.20;;;2.40;;
43160;SDS011;40968;52.342;5.528;2022-08-21T14:26:43;11.93;;;2.92;;
43160;SDS011;40968;52.342;5.528;2022-08-21T14:29:14;10.98;;;2.42;;
43160;SDS011;40968;52.342;5.528;2022-08-21T14:31:42;9.32;;;2.40;;
43160;SDS011;40968;52.342;5.528;2022-08-21T14:34:10;6.95;;;2.50;;
43160;SDS011;40968;52.342;5.528;2022-08-21T14:39:06;8.20;;;2.53;;
43160;SDS011;40968;52.342;5.528;2022-08-21T14:41:34;10.00;;;2.78;;
43160;SDS011;40968;52.342;5.528;2022-08-21T14:44:01;10.18;;;2.22;;
43160;SDS011;40968;52.342;5.528;2022-08-21T14:46:29;14.02;;;2.97;;
43160;SDS011;40968;52.342;5.528;2022-08-21T14:48:57;10.00;;;3.03;;
43160;SDS011;40968;52.342;5.528;2022-08-21T14:51:23;5.75;;;2.25;;
43160;SDS011;40968;52.342;5.528;2022-08-21T14:53:50;11.85;;;2.85;;
43160;SDS011;40968;52.342;5.528;2022-08-21T14:56:17;6.20;;;2.13;;
43160;SDS011;40968;52.342;5.528;2022-08-21T14:58:45;8.23;;;2.63;;
43160;SDS011;40968;52.342;5.528;2022-08-21T15:01:13;7.55;;;2.40;;
43160;SDS011;40968;52.342;5.528;2022-08-21T15:03:44;8.82;;;2.53;;
43160;SDS011;40968;52.342;5.528;2022-08-21T15:06:11;7.20;;;2.38;;